Nightmute, Alaska
Current Conditions -  °F | °C
As of 9:56 PM on Sunday 21 Dec 2014 (Local Time) from PAOO Reporting Station
Overcast Overcast  
Wind Chill: -1°   Ceiling: 1600
Heat Index: 11°   Visibility: 10mi
Dew Point:   Wind: 8mph
Humidity: 80%   Direction: 10°N
Pressure: 29.75"   Gusts: NA
Location:  60.48°N, 164.73°W
Report Text: PAOO 220656Z AUTO 01007KT 10SM OVC016 M12/M14 A2975 RMK AO2 TSNO T11161144 SNB19E53 P0000 SLP077 $
Loading
Personal Weather Stations






























Interactive Weather Map New forecast layout! Learn more

10-Day Weather Forecast

Advertisements
Track Severe Weather on mobile